Terminal Aerodrome Forecast
Issued by NWS

Home | Current Version | Previous Version | Text Only | Print | Product List | Glossary Off
Versions: 1 2 3 4 5 6 7 8 9 10 11 12 13 14 15 16 17 18

000
FTUS43 KOAX 180547
TAFCDR
TAF
KCDR 180547Z 1806/1906 04007KT 4SM -RA BR OVC005
     FM181600 33007KT P6SM VCSH SCT007 OVC015
     FM182000 01008KT 4SM -RA BR BKN005 OVC015=

USA.gov is the U.S. government's official web portal to all federal, state and local government web resources and services.